createdAt,value
2022-10-05T00:00:27.511Z,5.20
2022-10-05T00:01:27.521Z,5.10
2022-10-05T00:02:27.497Z,5.20
2022-10-05T00:03:27.482Z,5.20
2022-10-05T00:04:27.467Z,5.20
2022-10-05T00:05:28.461Z,5.40
2022-10-05T00:06:27.454Z,5.20
2022-10-05T00:07:27.451Z,5.60
2022-10-05T00:08:27.425Z,5.50
2022-10-05T00:09:27.458Z,5.60
2022-10-05T00:10:27.404Z,4.90
2022-10-05T00:11:27.395Z,5.30
2022-10-05T00:12:27.454Z,5.90
2022-10-05T00:13:27.370Z,5.70
2022-10-05T00:14:27.376Z,5.60
2022-10-05T00:15:27.349Z,5.90
2022-10-05T00:16:27.393Z,5.40
2022-10-05T00:17:27.345Z,6.00
2022-10-05T00:18:27.318Z,6.20
2022-10-05T00:19:27.311Z,5.70
2022-10-05T00:20:27.300Z,6.30
2022-10-05T00:21:27.287Z,6.30
2022-10-05T00:22:27.288Z,5.80
2022-10-05T00:23:27.265Z,6.80
2022-10-05T00:24:27.260Z,6.30
2022-10-05T00:25:27.259Z,6.30
2022-10-05T00:26:27.239Z,6.70
2022-10-05T00:27:27.236Z,6.30
2022-10-05T00:28:27.274Z,6.70
2022-10-05T00:29:27.204Z,6.90
2022-10-05T00:30:27.193Z,6.80
2022-10-05T00:31:27.319Z,7.20
2022-10-05T00:32:27.182Z,6.90
2022-10-05T00:33:27.215Z,7.40
2022-10-05T00:34:27.157Z,7.00
2022-10-05T00:35:27.139Z,7.30
2022-10-05T00:36:27.132Z,6.80
2022-10-05T00:37:27.136Z,7.00
2022-10-05T00:38:27.116Z,7.40
2022-10-05T00:39:27.098Z,7.90
2022-10-05T00:40:27.085Z,7.40
2022-10-05T00:41:27.080Z,7.70
2022-10-05T00:42:27.082Z,7.60
2022-10-05T00:43:27.060Z,7.40
2022-10-05T00:44:27.045Z,7.40
2022-10-05T00:45:27.062Z,7.50
2022-10-05T00:46:27.045Z,7.60
2022-10-05T00:47:28.020Z,7.70
2022-10-05T00:48:26.998Z,7.60
2022-10-05T00:49:27.009Z,8.10
2022-10-05T00:50:26.977Z,8.10
2022-10-05T00:51:26.972Z,7.30
2022-10-05T00:52:26.968Z,7.50
2022-10-05T00:53:26.945Z,7.80
2022-10-05T00:54:26.933Z,7.80
2022-10-05T00:55:26.922Z,7.80
2022-10-05T00:56:26.908Z,8.00
2022-10-05T00:57:26.907Z,8.30
2022-10-05T00:58:26.891Z,8.40
2022-10-05T00:59:26.882Z,8.40
2022-10-05T01:00:26.872Z,9.20
2022-10-05T01:01:26.908Z,8.30
2022-10-05T01:02:26.950Z,8.50
2022-10-05T01:03:26.841Z,8.60
2022-10-05T01:04:26.825Z,8.40
2022-10-05T01:05:26.820Z,9.20
2022-10-05T01:06:26.809Z,9.80
2022-10-05T01:07:26.814Z,9.40
2022-10-05T01:08:26.794Z,9.00
2022-10-05T01:09:26.798Z,9.80
2022-10-05T01:10:26.771Z,10.00
2022-10-05T01:11:26.760Z,9.70
2022-10-05T01:12:26.766Z,9.50
2022-10-05T01:13:26.734Z,9.30
2022-10-05T01:14:26.726Z,9.80
2022-10-05T01:15:26.707Z,9.40
2022-10-05T01:16:27.771Z,9.50
2022-10-05T01:17:26.716Z,9.80
2022-10-05T01:18:26.687Z,9.60
2022-10-05T01:19:26.694Z,10.40
2022-10-05T01:20:26.668Z,9.60
2022-10-05T01:21:26.655Z,10.10
2022-10-05T01:22:26.642Z,10.10
2022-10-05T01:23:26.653Z,9.50
2022-10-05T01:24:26.645Z,9.10
2022-10-05T01:25:26.623Z,10.40
2022-10-05T01:26:26.600Z,10.50
2022-10-05T01:27:26.596Z,9.80
2022-10-05T01:28:26.669Z,10.30
2022-10-05T01:29:26.568Z,9.60
2022-10-05T01:30:26.569Z,10.30
2022-10-05T01:31:26.577Z,10.20
2022-10-05T01:32:26.548Z,9.90
2022-10-05T01:33:26.547Z,10.20
2022-10-05T01:34:26.522Z,10.00
2022-10-05T01:35:26.520Z,10.20
2022-10-05T01:36:26.539Z,10.00
2022-10-05T01:37:26.502Z,9.90
2022-10-05T01:38:26.482Z,10.10
2022-10-05T01:39:26.476Z,9.80
2022-10-05T01:40:26.461Z,9.90
2022-10-05T01:41:26.473Z,9.80
2022-10-05T01:42:26.459Z,10.10
2022-10-05T01:43:26.430Z,10.10
2022-10-05T01:44:26.441Z,9.90
2022-10-05T01:45:26.583Z,10.10
2022-10-05T01:46:26.430Z,10.30
2022-10-05T01:47:26.410Z,10.40
2022-10-05T01:48:26.409Z,9.60
2022-10-05T01:49:26.393Z,9.40
2022-10-05T01:50:26.356Z,9.80
2022-10-05T01:51:26.448Z,9.80
2022-10-05T01:52:26.346Z,9.70
2022-10-05T01:53:26.324Z,10.20
2022-10-05T01:54:26.348Z,9.50
2022-10-05T01:55:26.338Z,10.10
2022-10-05T01:56:26.302Z,10.40
2022-10-05T01:57:26.337Z,9.80
2022-10-05T01:58:26.277Z,9.60
2022-10-05T01:59:26.259Z,10.10
2022-10-05T02:00:26.256Z,10.60
2022-10-05T02:01:26.325Z,10.50
2022-10-05T02:02:26.297Z,10.00
2022-10-05T02:03:26.213Z,10.80
2022-10-05T02:04:59.858Z,12.00
2022-10-05T02:05:28.198Z,11.40
2022-10-05T02:06:26.192Z,11.60
2022-10-05T02:07:26.200Z,11.20
2022-10-05T02:08:26.174Z,11.40
2022-10-05T02:09:26.165Z,11.80
2022-10-05T02:10:26.151Z,11.30
2022-10-05T02:11:26.145Z,11.60
2022-10-05T02:12:26.148Z,10.90
2022-10-05T02:13:26.150Z,12.10
2022-10-05T02:14:26.113Z,11.70
2022-10-05T02:15:26.102Z,13.10
2022-10-05T02:16:26.139Z,12.60
2022-10-05T02:17:26.095Z,11.80
2022-10-05T02:18:26.081Z,12.60
2022-10-05T02:19:26.060Z,12.30
2022-10-05T02:20:26.065Z,13.40
2022-10-05T02:21:26.042Z,14.00
2022-10-05T02:22:26.029Z,14.20
2022-10-05T02:23:26.086Z,13.50
2022-10-05T02:24:26.012Z,13.60
2022-10-05T02:25:26.000Z,13.90
2022-10-05T02:26:25.990Z,14.60
2022-10-05T02:27:25.974Z,14.50
2022-10-05T02:28:26.015Z,14.00
2022-10-05T02:29:25.959Z,13.70
2022-10-05T02:30:25.960Z,15.60
2022-10-05T02:31:26.014Z,15.20
2022-10-05T02:32:25.933Z,16.30
2022-10-05T02:33:25.929Z,14.70
2022-10-05T02:34:25.904Z,14.20
2022-10-05T02:35:25.901Z,14.20
2022-10-05T02:36:25.889Z,15.80
2022-10-05T02:37:25.907Z,15.30
2022-10-05T02:38:26.063Z,15.40
2022-10-05T02:39:25.853Z,16.70
2022-10-05T02:40:25.841Z,16.50
2022-10-05T02:41:25.834Z,16.30
2022-10-05T02:42:25.826Z,16.10
2022-10-05T02:43:25.831Z,15.80
2022-10-05T02:44:25.806Z,16.70
2022-10-05T02:45:25.818Z,16.50
2022-10-05T02:46:26.846Z,16.70
2022-10-05T02:47:25.779Z,16.50
2022-10-05T02:48:25.787Z,16.00
2022-10-05T02:49:25.757Z,16.40
2022-10-05T02:50:25.741Z,16.30
2022-10-05T02:51:25.739Z,15.50
2022-10-05T02:52:25.726Z,16.40
2022-10-05T02:53:25.730Z,15.90
2022-10-05T02:54:25.708Z,15.30
2022-10-05T02:55:25.691Z,16.20
2022-10-05T02:56:25.681Z,15.90
2022-10-05T02:57:25.672Z,15.90
2022-10-05T02:58:25.685Z,16.20
2022-10-05T02:59:25.667Z,16.80
2022-10-05T03:00:25.641Z,16.20
2022-10-05T03:01:25.686Z,15.90
2022-10-05T03:02:25.807Z,16.00
2022-10-05T03:03:25.617Z,15.60
2022-10-05T03:04:25.596Z,16.50
2022-10-05T03:05:25.586Z,16.80
2022-10-05T03:06:25.579Z,16.30
2022-10-05T03:07:25.566Z,15.80
2022-10-05T03:08:25.567Z,16.00
2022-10-05T03:09:25.543Z,15.80
2022-10-05T03:10:25.536Z,16.80
2022-10-05T03:11:25.525Z,15.80
2022-10-05T03:12:25.549Z,16.10
2022-10-05T03:13:25.514Z,15.90
2022-10-05T03:14:25.490Z,16.20
2022-10-05T03:15:25.491Z,17.10
2022-10-05T03:16:25.557Z,16.70
2022-10-05T03:17:25.478Z,16.40
2022-10-05T03:18:29.936Z,16.40
2022-10-05T03:19:27.447Z,16.40
2022-10-05T03:20:25.439Z,16.30
2022-10-05T03:21:25.432Z,17.10
2022-10-05T03:22:25.422Z,15.80
2022-10-05T03:23:25.418Z,16.00
2022-10-05T03:24:25.398Z,16.90
2022-10-05T03:25:25.388Z,16.50
2022-10-05T03:26:25.377Z,16.70
2022-10-05T03:27:25.365Z,16.60
2022-10-05T03:28:25.470Z,18.00
2022-10-05T03:29:25.355Z,16.40
2022-10-05T03:30:25.334Z,18.00
2022-10-05T03:31:25.368Z,17.50
2022-10-05T03:32:25.312Z,17.80
2022-10-05T03:33:25.318Z,18.00
2022-10-05T03:34:25.288Z,16.80
2022-10-05T03:35:25.325Z,17.80
2022-10-05T03:36:25.269Z,16.90
2022-10-05T03:37:25.258Z,17.20
2022-10-05T03:38:25.268Z,18.10
2022-10-05T03:39:25.242Z,18.40
2022-10-05T03:40:25.229Z,18.00
2022-10-05T03:41:25.222Z,18.10
2022-10-05T03:42:25.212Z,19.50
2022-10-05T03:43:25.215Z,18.20
2022-10-05T03:44:25.194Z,19.60
2022-10-05T03:45:25.181Z,18.80
2022-10-05T03:46:25.182Z,18.80
2022-10-05T03:47:25.162Z,17.50
2022-10-05T03:48:25.166Z,18.70
2022-10-05T03:49:25.143Z,18.50
2022-10-05T03:50:25.129Z,17.90
2022-10-05T03:51:25.119Z,19.00
2022-10-05T03:52:25.116Z,19.20
2022-10-05T03:53:25.116Z,20.00
2022-10-05T03:54:25.089Z,19.60
2022-10-05T03:55:25.088Z,21.40
2022-10-05T03:56:25.074Z,20.90
2022-10-05T03:57:25.060Z,22.60
2022-10-05T03:58:25.171Z,21.00
2022-10-05T03:59:28.813Z,22.20
2022-10-05T04:00:26.023Z,22.30
2022-10-05T04:01:25.069Z,22.00
2022-10-05T04:02:25.046Z,23.50
2022-10-05T04:03:25.005Z,22.00
2022-10-05T04:04:24.990Z,23.80
2022-10-05T04:05:24.979Z,23.30
2022-10-05T04:06:25.016Z,23.10
2022-10-05T04:07:24.961Z,23.70
2022-10-05T04:08:24.960Z,24.30
2022-10-05T04:09:24.934Z,24.00
2022-10-05T04:10:24.929Z,25.00
2022-10-05T04:11:24.914Z,22.10
2022-10-05T04:12:24.908Z,23.80
2022-10-05T04:13:24.917Z,23.70
2022-10-05T04:14:24.898Z,24.20
2022-10-05T04:15:24.881Z,22.40
2022-10-05T04:16:24.908Z,23.20
2022-10-05T04:17:24.862Z,23.70
2022-10-05T04:18:24.865Z,23.40
2022-10-05T04:19:24.842Z,22.30
2022-10-05T04:20:24.836Z,23.50
2022-10-05T04:21:24.842Z,23.50
2022-10-05T04:22:24.821Z,22.70
2022-10-05T04:23:24.813Z,23.40
2022-10-05T04:24:24.793Z,22.80
2022-10-05T04:25:24.781Z,23.30
2022-10-05T04:26:24.774Z,22.30
2022-10-05T04:27:24.765Z,24.90
2022-10-05T04:28:28.295Z,24.50
2022-10-05T04:29:26.744Z,24.40
2022-10-05T04:30:24.732Z,24.40
2022-10-05T04:31:24.770Z,24.10
2022-10-05T04:32:24.713Z,24.60
2022-10-05T04:33:24.712Z,23.70
2022-10-05T04:34:24.695Z,26.20
2022-10-05T04:35:24.685Z,25.70
2022-10-05T04:36:24.669Z,25.00
2022-10-05T04:37:24.675Z,24.80
2022-10-05T04:38:24.664Z,26.30
2022-10-05T04:39:24.638Z,25.00
2022-10-05T04:40:24.636Z,26.20
2022-10-05T04:41:24.646Z,26.60
2022-10-05T04:42:24.610Z,27.20
2022-10-05T04:43:24.614Z,25.80
2022-10-05T04:44:24.587Z,26.30
2022-10-05T04:45:24.588Z,27.20
2022-10-05T04:46:24.616Z,26.60
2022-10-05T04:47:24.564Z,26.90
2022-10-05T04:48:24.566Z,27.30
2022-10-05T04:49:24.565Z,27.80
2022-10-05T04:50:24.535Z,26.40
2022-10-05T04:51:24.525Z,26.60
2022-10-05T04:52:24.521Z,28.20
2022-10-05T04:53:24.557Z,26.80
2022-10-05T04:54:24.501Z,27.60
2022-10-05T04:55:24.490Z,27.30
2022-10-05T04:56:24.473Z,27.20
2022-10-05T04:57:24.464Z,27.10
2022-10-05T04:58:24.473Z,28.60
2022-10-05T04:59:24.478Z,26.90
2022-10-05T05:00:24.442Z,28.30
2022-10-05T05:01:24.504Z,28.30
2022-10-05T05:02:24.427Z,27.80
2022-10-05T05:03:24.489Z,28.00
2022-10-05T05:04:24.402Z,27.10
2022-10-05T05:05:24.391Z,28.90
2022-10-05T05:06:24.382Z,28.70
2022-10-05T05:07:24.373Z,29.80
2022-10-05T05:08:24.376Z,27.30
2022-10-05T05:09:24.352Z,29.80
2022-10-05T05:10:24.343Z,30.20
2022-10-05T05:11:24.783Z,29.80
2022-10-05T05:12:25.319Z,29.70
2022-10-05T05:13:24.338Z,30.70
2022-10-05T05:14:24.304Z,31.20
2022-10-05T05:15:24.293Z,31.70
2022-10-05T05:16:24.346Z,30.70
2022-10-05T05:17:25.274Z,32.20
2022-10-05T05:18:24.275Z,34.00
2022-10-05T05:19:24.252Z,33.40
2022-10-05T05:20:24.280Z,32.20
2022-10-05T05:21:24.229Z,33.30
2022-10-05T05:22:24.215Z,32.90
2022-10-05T05:23:25.223Z,32.20
2022-10-05T05:24:24.210Z,31.60
2022-10-05T05:25:24.184Z,32.60
2022-10-05T05:26:25.184Z,33.20
2022-10-05T05:27:24.173Z,33.30
2022-10-05T05:28:24.254Z,32.70
2022-10-05T05:29:24.195Z,34.50
2022-10-05T05:30:24.142Z,34.60
2022-10-05T05:31:24.285Z,34.40
2022-10-05T05:32:24.138Z,34.40
2022-10-05T05:33:24.115Z,34.90
2022-10-05T05:34:24.100Z,36.60
2022-10-05T05:35:24.089Z,35.20
2022-10-05T05:36:24.084Z,35.40
2022-10-05T05:37:24.091Z,36.60
2022-10-05T05:38:24.064Z,35.20
2022-10-05T05:39:24.054Z,36.20
2022-10-05T05:40:24.042Z,36.90
2022-10-05T05:41:24.034Z,38.70
2022-10-05T05:42:24.019Z,37.70
2022-10-05T05:43:24.015Z,40.60
2022-10-05T05:44:24.000Z,41.00
2022-10-05T05:45:23.991Z,40.30
2022-10-05T05:46:38.776Z,40.70
2022-10-05T05:47:26.002Z,42.00
2022-10-05T05:48:23.971Z,42.50
2022-10-05T05:49:23.953Z,43.30
2022-10-05T05:50:23.942Z,43.30
2022-10-05T05:51:23.964Z,41.30
2022-10-05T05:52:23.925Z,42.80
2022-10-05T05:53:23.912Z,43.40
2022-10-05T05:54:24.902Z,42.00
2022-10-05T05:55:29.021Z,43.00
2022-10-05T05:56:25.888Z,43.60
2022-10-05T05:57:23.873Z,43.40
2022-10-05T05:58:23.874Z,43.00
2022-10-05T05:59:23.853Z,42.90
2022-10-05T06:00:23.847Z,42.60
2022-10-05T06:01:32.788Z,42.00
2022-10-05T06:02:25.888Z,43.20
2022-10-05T06:03:23.973Z,44.60
2022-10-05T06:04:23.800Z,44.30
2022-10-05T06:05:23.794Z,44.70
2022-10-05T06:06:23.784Z,43.70
2022-10-05T06:07:28.046Z,43.10
2022-10-05T06:08:25.780Z,44.50
2022-10-05T06:09:23.759Z,47.00
2022-10-05T06:10:23.744Z,47.40
2022-10-05T06:11:23.771Z,48.60
2022-10-05T06:12:23.722Z,48.50
2022-10-05T06:13:23.727Z,51.30
2022-10-05T06:14:23.701Z,49.00
2022-10-05T06:15:23.695Z,50.10
2022-10-05T06:16:23.708Z,49.60
2022-10-05T06:17:23.675Z,50.00
2022-10-05T06:18:23.674Z,49.50
2022-10-05T06:19:23.652Z,49.40
2022-10-05T06:20:23.637Z,52.30
2022-10-05T06:21:23.633Z,49.70
2022-10-05T06:22:23.631Z,52.20
2022-10-05T06:23:23.622Z,52.20
2022-10-05T06:24:23.628Z,51.20
2022-10-05T06:25:23.645Z,52.00
2022-10-05T06:26:23.589Z,52.30
2022-10-05T06:27:23.566Z,54.50
2022-10-05T06:28:23.665Z,54.80
2022-10-05T06:29:23.660Z,54.50
2022-10-05T06:30:23.537Z,53.80
2022-10-05T06:31:23.566Z,55.30
2022-10-05T06:32:23.527Z,55.70
2022-10-05T06:33:23.526Z,54.00
2022-10-05T06:34:23.501Z,52.80
2022-10-05T06:35:23.530Z,51.90
2022-10-05T06:36:23.479Z,52.00
2022-10-05T06:37:23.513Z,50.10
2022-10-05T06:38:23.487Z,51.40
2022-10-05T06:39:23.453Z,51.60
2022-10-05T06:40:23.442Z,51.10
2022-10-05T06:41:23.434Z,51.70
2022-10-05T06:42:23.420Z,50.10
2022-10-05T06:43:24.705Z,50.40
2022-10-05T06:44:23.403Z,49.50
2022-10-05T06:45:23.388Z,49.70
2022-10-05T06:46:23.416Z,50.50
2022-10-05T06:47:23.364Z,49.70
2022-10-05T06:48:23.374Z,49.00
2022-10-05T06:49:23.347Z,50.40
2022-10-05T06:50:23.339Z,49.30
2022-10-05T06:51:23.362Z,49.60
2022-10-05T06:52:23.320Z,49.50
2022-10-05T06:53:23.314Z,50.70
2022-10-05T06:54:24.294Z,48.10
2022-10-05T06:55:23.279Z,49.40
2022-10-05T06:56:23.279Z,48.60
2022-10-05T06:57:23.276Z,47.50
2022-10-05T06:58:23.265Z,48.60
2022-10-05T06:59:23.246Z,47.80
2022-10-05T07:00:23.231Z,46.10
2022-10-05T07:01:23.263Z,45.40
2022-10-05T07:02:23.262Z,42.40
2022-10-05T07:03:23.222Z,42.70
2022-10-05T07:04:23.193Z,44.30
2022-10-05T07:05:23.172Z,42.40
2022-10-05T07:06:24.169Z,42.60
2022-10-05T07:07:23.166Z,41.50
2022-10-05T07:08:23.161Z,42.70
2022-10-05T07:09:23.143Z,43.10
2022-10-05T07:10:23.128Z,41.90
2022-10-05T07:11:23.230Z,42.20
2022-10-05T07:12:23.107Z,41.00
2022-10-05T07:13:23.117Z,41.60
2022-10-05T07:14:23.128Z,42.80
2022-10-05T07:15:23.084Z,42.70
2022-10-05T07:16:23.088Z,41.00
2022-10-05T07:17:24.067Z,42.40
2022-10-05T07:18:23.179Z,43.40
2022-10-05T07:19:23.039Z,42.40
2022-10-05T07:20:23.033Z,43.00
2022-10-05T07:21:23.011Z,42.50
2022-10-05T07:22:23.004Z,43.40
2022-10-05T07:23:23.001Z,45.50
2022-10-05T07:24:22.984Z,44.70
2022-10-05T07:25:22.976Z,44.60
2022-10-05T07:26:22.966Z,43.50
2022-10-05T07:27:22.966Z,43.90
2022-10-05T07:28:23.085Z,43.80
2022-10-05T07:29:22.928Z,43.10
2022-10-05T07:30:22.913Z,42.00
2022-10-05T07:31:22.986Z,43.40
2022-10-05T07:32:22.897Z,43.90
2022-10-05T07:33:22.897Z,43.30
2022-10-05T07:34:22.870Z,43.20
2022-10-05T07:35:22.871Z,43.50
2022-10-05T07:36:22.855Z,41.20
2022-10-05T07:37:22.844Z,42.00
2022-10-05T07:38:22.847Z,41.00
2022-10-05T07:39:23.480Z,40.00
2022-10-05T07:40:23.809Z,40.80
2022-10-05T07:41:22.798Z,41.30
2022-10-05T07:42:22.793Z,40.60
2022-10-05T07:43:22.792Z,41.10
2022-10-05T07:44:22.772Z,41.40
2022-10-05T07:45:22.766Z,42.50
2022-10-05T07:46:22.861Z,39.40
2022-10-05T07:47:22.740Z,39.10
2022-10-05T07:48:22.746Z,39.90
2022-10-05T07:49:22.759Z,38.40
2022-10-05T07:50:22.781Z,37.00
2022-10-05T07:51:22.703Z,35.70
2022-10-05T07:52:22.700Z,37.50
2022-10-05T07:53:22.691Z,35.90
2022-10-05T07:54:22.695Z,35.90
2022-10-05T07:55:22.672Z,36.40
2022-10-05T07:56:22.652Z,37.30
2022-10-05T07:57:22.640Z,34.20
2022-10-05T07:58:22.633Z,32.80
2022-10-05T07:59:23.627Z,33.80
2022-10-05T08:00:22.816Z,33.50
2022-10-05T08:01:22.676Z,32.50
2022-10-05T08:02:22.723Z,31.60
2022-10-05T08:03:22.663Z,32.30
2022-10-05T08:04:22.570Z,33.80
2022-10-05T08:05:22.554Z,32.50
2022-10-05T08:06:22.543Z,31.70
2022-10-05T08:08:22.545Z,30.30
2022-10-05T08:09:22.531Z,29.90
2022-10-05T08:10:22.508Z,29.20
2022-10-05T08:11:22.492Z,29.70
2022-10-05T08:12:22.504Z,28.40
2022-10-05T08:13:22.486Z,30.10
2022-10-05T08:14:22.462Z,29.20
2022-10-05T08:15:22.460Z,28.80
2022-10-05T08:16:22.541Z,30.60
2022-10-05T08:17:25.578Z,30.50
2022-10-05T08:18:23.435Z,31.10
2022-10-05T08:19:22.409Z,28.80
2022-10-05T08:20:22.413Z,29.20
2022-10-05T08:21:22.388Z,27.60
2022-10-05T08:22:22.381Z,27.80
2022-10-05T08:23:22.379Z,27.00
2022-10-05T08:24:22.354Z,27.70
2022-10-05T08:25:22.344Z,26.80
2022-10-05T08:26:22.337Z,25.70
2022-10-05T08:27:22.327Z,26.30
2022-10-05T08:28:22.368Z,26.10
2022-10-05T08:29:22.308Z,25.70
2022-10-05T08:30:22.299Z,24.80
2022-10-05T08:31:22.413Z,24.80
2022-10-05T08:32:22.291Z,24.00
2022-10-05T08:33:22.277Z,24.10
2022-10-05T08:34:22.275Z,24.00
2022-10-05T08:35:22.245Z,24.40
2022-10-05T08:36:22.246Z,24.40
2022-10-05T08:37:22.261Z,24.30
2022-10-05T08:38:22.221Z,24.70
2022-10-05T08:39:22.205Z,24.40
2022-10-05T08:40:22.191Z,24.20
2022-10-05T08:41:22.178Z,24.60
2022-10-05T08:42:22.167Z,23.70
2022-10-05T08:43:22.166Z,22.90
2022-10-05T08:44:22.146Z,23.40
2022-10-05T08:45:22.135Z,22.10
2022-10-05T08:46:22.173Z,22.40
2022-10-05T08:47:22.110Z,20.80
2022-10-05T08:48:22.114Z,20.30
2022-10-05T08:49:22.088Z,20.30
2022-10-05T08:50:22.082Z,19.60
2022-10-05T08:51:22.068Z,18.90
2022-10-05T08:52:22.058Z,18.60
2022-10-05T08:53:22.074Z,17.70
2022-10-05T08:54:22.041Z,18.10
2022-10-05T08:55:22.029Z,18.50
2022-10-05T08:56:26.351Z,16.90
2022-10-05T08:57:24.028Z,17.40
2022-10-05T08:58:22.014Z,17.50
2022-10-05T08:59:21.992Z,17.50
2022-10-05T09:00:21.984Z,16.80
2022-10-05T09:01:22.074Z,16.90
2022-10-05T09:02:21.988Z,16.30
2022-10-05T09:03:22.960Z,17.10
2022-10-05T09:04:21.946Z,16.30
2022-10-05T09:05:21.929Z,16.00
2022-10-05T09:06:21.922Z,16.40
2022-10-05T09:07:21.927Z,17.60
2022-10-05T09:08:21.915Z,17.00
2022-10-05T09:09:21.883Z,16.30
2022-10-05T09:10:21.871Z,16.80
2022-10-05T09:11:21.900Z,16.40
2022-10-05T09:12:21.854Z,16.00
2022-10-05T09:13:21.918Z,16.30
2022-10-05T09:14:21.836Z,16.30
2022-10-05T09:15:27.161Z,15.80
2022-10-05T09:16:23.899Z,17.10
2022-10-05T09:17:21.808Z,17.30
2022-10-05T09:18:21.811Z,16.70
2022-10-05T09:19:21.783Z,17.50
2022-10-05T09:20:21.777Z,17.70
2022-10-05T09:21:22.769Z,17.40
2022-10-05T09:22:21.756Z,18.10
2022-10-05T09:23:21.753Z,18.10
2022-10-05T09:24:21.755Z,17.70
2022-10-05T09:25:21.724Z,18.50
2022-10-05T09:26:21.716Z,18.80
2022-10-05T09:27:22.706Z,18.20
2022-10-05T09:28:21.771Z,17.60
2022-10-05T09:29:21.678Z,18.00
2022-10-05T09:30:21.671Z,17.90
2022-10-05T09:31:21.709Z,18.10
2022-10-05T09:32:21.651Z,17.40
2022-10-05T09:33:21.648Z,18.60
2022-10-05T09:34:21.644Z,17.20
2022-10-05T09:35:21.728Z,17.80
2022-10-05T09:36:21.602Z,17.90
2022-10-05T09:37:21.596Z,17.10
2022-10-05T09:38:21.603Z,17.10
2022-10-05T09:39:21.577Z,17.40
2022-10-05T09:40:21.565Z,16.10
2022-10-05T09:41:21.565Z,16.20
2022-10-05T09:42:21.553Z,16.40
2022-10-05T09:43:21.551Z,16.80
2022-10-05T09:44:21.522Z,17.00
2022-10-05T09:45:21.747Z,16.60
2022-10-05T09:46:21.571Z,17.10
2022-10-05T09:47:21.490Z,17.00
2022-10-05T09:48:21.492Z,16.20
2022-10-05T09:49:21.471Z,16.00
2022-10-05T09:50:21.477Z,15.30
2022-10-05T09:51:21.470Z,16.40
2022-10-05T09:52:21.439Z,16.40
2022-10-05T09:53:21.450Z,14.70
2022-10-05T09:54:21.424Z,15.80
2022-10-05T09:55:21.414Z,14.50
2022-10-05T09:56:21.412Z,14.50
2022-10-05T09:57:21.397Z,14.00
2022-10-05T09:58:21.392Z,15.20
2022-10-05T09:59:21.372Z,15.00
2022-10-05T10:00:21.364Z,15.00
2022-10-05T10:01:33.157Z,14.90
2022-10-05T10:02:23.424Z,15.00
2022-10-05T10:03:21.446Z,14.50
2022-10-05T10:04:21.327Z,14.30
2022-10-05T10:05:21.312Z,14.50
2022-10-05T10:06:21.305Z,13.70
2022-10-05T10:07:21.303Z,13.00
2022-10-05T10:08:21.299Z,13.50
2022-10-05T10:09:21.273Z,14.10
2022-10-05T10:10:21.263Z,14.10
2022-10-05T10:11:21.256Z,14.00
2022-10-05T10:12:21.246Z,13.30
2022-10-05T10:13:21.243Z,13.70
2022-10-05T10:14:21.239Z,13.70
2022-10-05T10:15:22.209Z,13.10
2022-10-05T10:16:21.291Z,12.60
2022-10-05T10:17:21.190Z,12.20
2022-10-05T10:18:21.190Z,13.20
2022-10-05T10:19:21.172Z,12.50
2022-10-05T10:20:21.164Z,12.20
2022-10-05T10:21:21.148Z,11.70
2022-10-05T10:22:21.141Z,11.10
2022-10-05T10:23:21.145Z,10.80
2022-10-05T10:24:21.120Z,10.20
2022-10-05T10:25:21.107Z,9.60
2022-10-05T10:26:21.096Z,8.90
2022-10-05T10:27:21.090Z,8.50
2022-10-05T10:28:21.129Z,7.70
2022-10-05T10:29:21.129Z,8.20
2022-10-05T10:30:21.882Z,8.20
2022-10-05T10:31:21.109Z,7.50
2022-10-05T10:32:21.052Z,7.90
2022-10-05T10:33:21.039Z,7.50
2022-10-05T10:34:21.029Z,7.40
2022-10-05T10:35:21.046Z,6.70
2022-10-05T10:36:21.000Z,6.50
2022-10-05T10:37:21.003Z,6.10
2022-10-05T10:38:20.998Z,5.80
2022-10-05T10:39:21.034Z,5.60
2022-10-05T10:40:20.962Z,5.30
2022-10-05T10:41:20.953Z,5.40
2022-10-05T10:42:26.000Z,5.30
2022-10-05T10:43:22.937Z,5.40
2022-10-05T10:44:20.931Z,4.80
2022-10-05T10:45:20.905Z,4.40
2022-10-05T10:46:20.958Z,4.70
2022-10-05T10:47:20.886Z,4.50
2022-10-05T10:48:20.885Z,4.40
2022-10-05T10:49:20.865Z,4.20
2022-10-05T10:50:20.867Z,4.60
2022-10-05T10:51:20.843Z,4.10
2022-10-05T10:52:20.839Z,4.20
2022-10-05T10:53:20.832Z,4.80
2022-10-05T10:54:20.819Z,4.20
2022-10-05T10:55:20.877Z,4.10
2022-10-05T10:56:20.816Z,4.20
2022-10-05T10:57:20.793Z,4.30
2022-10-05T10:58:20.843Z,4.30
2022-10-05T10:59:20.764Z,4.40
2022-10-05T11:00:20.754Z,4.00
2022-10-05T11:01:20.812Z,4.00
2022-10-05T11:02:20.808Z,4.00
2022-10-05T11:03:20.734Z,4.00
2022-10-05T11:04:20.716Z,4.00
2022-10-05T11:05:20.706Z,3.50
2022-10-05T11:06:20.717Z,3.70
2022-10-05T11:07:20.707Z,4.20
2022-10-05T11:08:20.691Z,3.90
2022-10-05T11:09:20.671Z,3.80
2022-10-05T11:10:21.668Z,4.10
2022-10-05T11:11:20.665Z,4.00
2022-10-05T11:12:20.642Z,4.00
2022-10-05T11:13:20.647Z,3.90
2022-10-05T11:14:20.621Z,3.60
2022-10-05T11:15:20.613Z,3.80
2022-10-05T11:16:20.596Z,3.80
2022-10-05T11:17:20.605Z,3.80
2022-10-05T11:18:21.781Z,3.80
2022-10-05T11:19:20.569Z,3.60
2022-10-05T11:20:20.558Z,4.10
2022-10-05T11:21:20.548Z,3.60
2022-10-05T11:22:20.588Z,3.70
2022-10-05T11:23:20.577Z,3.90
2022-10-05T11:24:20.517Z,4.10
2022-10-05T11:25:20.512Z,4.10
2022-10-05T11:26:20.511Z,3.90
2022-10-05T11:28:20.565Z,3.90
2022-10-05T11:29:20.471Z,3.80
2022-10-05T11:30:20.459Z,4.00
2022-10-05T11:31:20.551Z,3.80
2022-10-05T11:32:20.435Z,4.10
2022-10-05T11:33:20.443Z,3.90
2022-10-05T11:34:20.418Z,4.00
2022-10-05T11:35:20.407Z,4.00
2022-10-05T11:36:20.399Z,4.00
2022-10-05T11:37:20.393Z,3.90
2022-10-05T11:38:20.379Z,4.20
2022-10-05T11:39:20.382Z,3.70
2022-10-05T11:40:20.531Z,3.50
2022-10-05T11:41:20.381Z,4.10
2022-10-05T11:42:20.336Z,3.90
2022-10-05T11:43:20.367Z,3.90
2022-10-05T11:44:20.330Z,3.80
2022-10-05T11:45:20.309Z,3.50
2022-10-05T11:46:20.347Z,3.70
2022-10-05T11:47:20.289Z,3.60
2022-10-05T11:48:20.281Z,3.50
2022-10-05T11:49:20.283Z,3.70
2022-10-05T11:50:20.261Z,3.80
2022-10-05T11:51:22.083Z,3.90
2022-10-05T11:52:20.246Z,3.50
2022-10-05T11:53:20.244Z,3.60
2022-10-05T11:54:20.232Z,3.90
2022-10-05T11:55:20.223Z,4.10
2022-10-05T11:56:20.255Z,3.70
2022-10-05T11:57:20.186Z,4.10
2022-10-05T11:58:20.178Z,3.70
2022-10-05T11:59:20.179Z,3.90
2022-10-05T12:00:20.174Z,3.90
2022-10-05T12:01:20.149Z,3.70
2022-10-05T12:02:20.136Z,3.90
2022-10-05T12:03:20.267Z,4.20
2022-10-05T12:04:20.209Z,4.00
2022-10-05T12:05:20.212Z,4.50
2022-10-05T12:06:20.102Z,4.60
2022-10-05T12:07:20.107Z,4.60
2022-10-05T12:08:20.079Z,4.60
2022-10-05T12:09:20.083Z,4.60
2022-10-05T12:10:20.061Z,4.50
2022-10-05T12:11:20.143Z,4.30
2022-10-05T12:12:20.042Z,4.40
2022-10-05T12:13:20.052Z,4.40
2022-10-05T12:14:20.034Z,4.10
2022-10-05T12:15:20.033Z,4.10
2022-10-05T12:16:20.118Z,4.40
2022-10-05T12:17:19.996Z,4.50
2022-10-05T12:18:19.981Z,4.40
2022-10-05T12:19:19.981Z,4.60
2022-10-05T12:20:19.958Z,4.40
2022-10-05T12:21:19.950Z,4.20
2022-10-05T12:22:19.936Z,4.70
2022-10-05T12:23:19.930Z,4.90
2022-10-05T12:24:24.578Z,4.40
2022-10-05T12:25:21.903Z,4.90
2022-10-05T12:26:20.901Z,4.60
2022-10-05T12:27:19.890Z,4.70
2022-10-05T12:28:19.905Z,4.90
2022-10-05T12:29:19.887Z,5.20
2022-10-05T12:30:19.857Z,4.80
2022-10-05T12:31:19.891Z,4.80
2022-10-05T12:32:19.866Z,5.00
2022-10-05T12:33:19.831Z,5.20
2022-10-05T12:34:19.833Z,5.30
2022-10-05T12:35:36.511Z,5.70
2022-10-05T12:36:21.805Z,5.50
2022-10-05T12:37:19.798Z,5.40
2022-10-05T12:38:19.784Z,5.40
2022-10-05T12:39:19.786Z,5.40
2022-10-05T12:40:19.768Z,5.20
2022-10-05T12:41:19.753Z,5.40
2022-10-05T12:42:19.739Z,5.30
2022-10-05T12:43:19.740Z,5.50
2022-10-05T12:44:19.785Z,5.60
2022-10-05T12:45:19.718Z,5.50
2022-10-05T12:46:19.706Z,5.60
2022-10-05T12:47:19.697Z,5.40
2022-10-05T12:48:19.687Z,5.20
2022-10-05T12:49:19.680Z,5.40
2022-10-05T12:50:19.664Z,5.70
2022-10-05T12:51:19.660Z,5.30
2022-10-05T12:52:19.643Z,5.30
2022-10-05T12:53:19.630Z,5.40
2022-10-05T12:54:19.642Z,5.50
2022-10-05T12:55:19.614Z,5.60
2022-10-05T12:56:19.649Z,5.30
2022-10-05T12:57:19.720Z,5.50
2022-10-05T12:58:19.583Z,5.80
2022-10-05T12:59:19.587Z,5.60
2022-10-05T13:00:22.892Z,5.80
2022-10-05T13:01:20.561Z,5.60
2022-10-05T13:02:19.591Z,5.80